WMKJWMKM

Guest
Details From WMKJ - Johor Bahru Sultan Ismail
To WMKM - Malacca
Flight Number -
Tags generated
Created
Modified
Stats Distance 93 nm / 173 km
Max Altitude 0 ft / 0 m
Waypoints 3
Social Downloads 0
Likes 0
Share VATSIM

Download

Looking for another format? Having issues loading an existing format? Contact us
Advertisement - Login to hide

Notes

Basic altitude profile: - Ascent Rate: 2500ft/min - Ascent Speed: 100kts - Cruise Altitude: 1000ft - Cruise Speed: 420kts - Descent Rate: 1500ft/min - Descent Speed: 250kts Options: - Use NATs: yes - Use PACOTS: yes - Use low airways: yes - Use high airways: yes

Route

WMKJ VMK WMKM

ID Type Via Altitude (ft/m) Position (lat/lon) Dist (leg/tot) Name
O WMKJ APT - 0 / 0 1.64131 / 103.66962 - / 0 nm Johor Bahru Sultan Ismail
VMK VOR - 0 / 0 2.25639 / 102.25056 92 / 92 nm MALACCA VOR-DME
O WMKM APT - 0 / 0 2.26336 / 102.25155 0 / 93 nm Malacca

Altitude Profile

Advertisement - Login to hide

WMKJ

Details ICAO WMKJ (JHB)
Name Senai Intl - Sultan Ismail
Region Malaysia (Peninsular Malaysia)
Timezone Asia/Kuala_Lumpur (UTC+8.0)
Stats Elevation 133 ft / 41 m (AMSL)
Location 1.640560° 103.670000°
Runways 1
Magnetic Variation 0.189° E

METAR

WMKJ 241900Z 00000KT 8000 FEW023 BKN280 25/24 Q1010

Decode

TAF

TAF TAF WMKJ 241700Z 2418/2518 13005KT 9999 FEW018 BECMG 2422/2500 4000 BR FEW007 TEMPO 2507/2511 3000 TSRA FEW010 FEW017CB SCT020

Decode

Departure Runways

ID Width Length Bearing (true/mag) Surface Threshold Overrun Markings Lighting
16 150 ft / 46 m 12,602 ft / 3,841 m 160.01° / 159.82° ASPHALT 0 ft / 0 m 0 ft / 0 m PREC-APP CENTERLINE EDGE THRESHOLD
34 150 ft / 46 m 12,602 ft / 3,841 m 340.01° / 339.82° ASPHALT 0 ft / 0 m 0 ft / 0 m PREC-APP CENTERLINE EDGE THRESHOLD

WMKM

Details ICAO WMKM (MKZ)
Name Malacca
Region Malaysia (Peninsular Malaysia)
Timezone Asia/Kuala_Lumpur (UTC+8.0)
Stats Elevation 35 ft / 11 m (AMSL)
Location 2.263360° 102.252000°
Runways 1
Magnetic Variation 0.073° E

METAR

WMKM 241900Z VRB02KT 9999 FEW017CB SCT140 BKN270 27/25 Q1009

Decode

TAF

TAF WMKM 241700Z 2418/2518 VRB03KT 9999 FEW028 TEMPO 2501/2505 21010KT 4000 TSRA FEW010 FEW017CB SCT020

Decode

Destination Runways

ID Width Length Bearing (true/mag) Surface Threshold Overrun Markings Lighting
03 121 ft / 37 m 4,523 ft / 1,379 m 29.93° / 29.86° ASPHALT 0 ft / 0 m 200 ft / 61 m APP EDGE THRESHOLD
21 121 ft / 37 m 4,523 ft / 1,379 m 209.93° / 209.86° ASPHALT 0 ft / 0 m 200 ft / 61 m APP EDGE THRESHOLD

Popular Alternatives